Hachinohemaru — JE3089 — position and weather

sailwx.info

Track history (hours):
 
Tides and Currents Weather Stations Pressure Air Temp Water Temp Dewpoint Dewpoint Depression Visibility Wind Speed Wind Dir Waves Ship Positions

Hachinohemaru

Last reported at 2015-Jun-26 17:33 UTC. Time now 2015-Jun-30 08:17 UTC.
Position N 34°43' E 139°38'.

Length 168 m; draft 5.6 m.

Type: Cargo ship. MMSI: 431700018.

Date/timePositionNaut miles runAvg speedWind from/ knotsBaromVisibWave heightAir tempDewpointWater temp
2015-Jun-26 17:33N 34°43' E 139°38'1413.7
2015-Jun-26 16:33N 34°48' E 139°54'1414.1
2015-Jun-26 15:33N 34°56' E 140°08'1414.1
2015-Jun-26 14:33N 35°03' E 140°23'1313.3
2015-Jun-26 13:33N 35°12' E 140°35'1312.8
2015-Jun-26 12:33N 35°23' E 140°42'1313.0
2015-Jun-26 11:31N 35°35' E 140°51'1313.2
2015-Jun-26 10:31N 35°47' E 140°57'1413.9
2015-Jun-26 09:32N 35°57' E 140°46'4 0.3
2015-Jun-25 20:32N 35°56' E 140°41'0 0.0
2015-Jun-25 19:32N 35°56' E 140°41'0 0.0
2015-Jun-25 18:32N 35°56' E 140°41'0 0.0
2015-Jun-25 17:23N 35°56' E 140°41'0 0.0
2015-Jun-25 16:17N 35°56' E 140°41'0 0.0
2015-Jun-25 12:23N 35°56' E 140°41'0 0.0
2015-Jun-24 21:32N 35°56' E 140°41'0 0.0
2015-Jun-24 20:26N 35°56' E 140°41'0 0.0
2015-Jun-24 15:20N 35°56' E 140°41'0 0.0
2015-Jun-24 14:32N 35°56' E 140°41'0 0.0
2015-Jun-24 13:23N 35°56' E 140°41'0 0.0
2015-Jun-24 12:23N 35°56' E 140°41'0 0.0
2015-Jun-24 11:32N 35°56' E 140°41'0 0.0
2015-Jun-23 21:23N 35°56' E 140°41'0 0.0
2015-Jun-23 20:23N 35°56' E 140°41'0 0.0
2015-Jun-22 16:11N 35°56' E 140°41'0 0.0
2015-Jun-22 15:23N 35°56' E 140°41'0 0.0
2015-Jun-22 14:23N 35°56' E 140°41'0 0.0
2015-Jun-22 13:29N 35°56' E 140°41'0 0.0
2015-Jun-22 12:29N 35°56' E 140°41'0 0.0
2015-Jun-22 11:23N 35°56' E 140°41'0 0.0
2015-Jun-22 10:32N 35°56' E 140°41'1 0.7
2015-Jun-22 08:33N 35°57' E 140°42'  
2015-Jun-19 22:33N 36°05' E 140°46'11 8.6
2015-Jun-19 21:19N 35°56' E 140°41'0 0.0
2015-Jun-19 20:31N 35°56' E 140°41'0 0.0
2015-Jun-19 19:31N 35°56' E 140°41'0 0.0
2015-Jun-19 07:28N 35°55' E 140°41'6 3.1
2015-Jun-19 05:20N 36°02' E 140°43'0 0.0
2015-Jun-19 03:20N 36°02' E 140°43'0 0.0
2015-Jun-19 02:20N 36°02' E 140°43'0 0.0
2015-Jun-19 00:20N 36°02' E 140°43'0 0.0
2015-Jun-18 22:26N 36°02' E 140°43'0 0.0
2015-Jun-18 20:23N 36°02' E 140°43'0 0.0
2015-Jun-18 19:32N 36°02' E 140°43'0 0.0
2015-Jun-18 18:32N 36°02' E 140°43'0 0.0
2015-Jun-18 17:32N 36°02' E 140°43'0 0.0
2015-Jun-18 16:29N 36°02' E 140°43'0 0.0
2015-Jun-18 15:32N 36°02' E 140°43'0 0.0
2015-Jun-18 14:29N 36°02' E 140°43'0 0.0
2015-Jun-18 13:32N 36°02' E 140°43'0 0.0
2015-Jun-18 11:32N 36°02' E 140°43'0 0.0
2015-Jun-18 05:08N 36°02' E 140°43'0 0.0
2015-Jun-18 04:08N 36°02' E 140°43'0 0.0
2015-Jun-18 03:32N 36°02' E 140°43'0 0.0
2015-Jun-18 02:26N 36°02' E 140°43'0 0.0
2015-Jun-17 23:14N 36°02' E 140°43'0 0.1
2015-Jun-17 22:20N 36°02' E 140°43'0 0.0
2015-Jun-17 21:23N 36°02' E 140°43'0 0.0
2015-Jun-17 19:26N 36°02' E 140°43'0 0.0
2015-Jun-17 18:26N 36°02' E 140°43'0 0.0
2015-Jun-17 15:20N 36°02' E 140°43'0 0.0
2015-Jun-17 06:23N 36°02' E 140°43'1 1.5
2015-Jun-17 05:33N 36°02' E 140°45'  
Track history (hours):
 
Tides and Currents Weather Stations Pressure Air Temp Water Temp Dewpoint Dewpoint Depression Visibility Wind Speed Wind Dir Waves Ship Positions

Hachinohemaru

Last reported at 2015-Jun-26 17:33 UTC. Time now 2015-Jun-30 08:17 UTC.
Position N 34°43' E 139°38'.

Length 168 m; draft 5.6 m.

Type: Cargo ship. MMSI: 431700018.

Date/timePositionNaut miles runAvg speedWind from/ knotsBaromVisibWave heightAir tempDewpointWater temp
2015-Jun-26 17:33N 34°43' E 139°38'1413.7
2015-Jun-26 16:33N 34°48' E 139°54'1414.1
2015-Jun-26 15:33N 34°56' E 140°08'1414.1
2015-Jun-26 14:33N 35°03' E 140°23'1313.3
2015-Jun-26 13:33N 35°12' E 140°35'1312.8
2015-Jun-26 12:33N 35°23' E 140°42'1313.0
2015-Jun-26 11:31N 35°35' E 140°51'1313.2
2015-Jun-26 10:31N 35°47' E 140°57'1413.9
2015-Jun-26 09:32N 35°57' E 140°46'4 0.3
2015-Jun-25 20:32N 35°56' E 140°41'0 0.0
2015-Jun-25 19:32N 35°56' E 140°41'0 0.0
2015-Jun-25 18:32N 35°56' E 140°41'0 0.0
2015-Jun-25 17:23N 35°56' E 140°41'0 0.0
2015-Jun-25 16:17N 35°56' E 140°41'0 0.0
2015-Jun-25 12:23N 35°56' E 140°41'0 0.0
2015-Jun-24 21:32N 35°56' E 140°41'0 0.0
2015-Jun-24 20:26N 35°56' E 140°41'0 0.0
2015-Jun-24 15:20N 35°56' E 140°41'0 0.0
2015-Jun-24 14:32N 35°56' E 140°41'0 0.0
2015-Jun-24 13:23N 35°56' E 140°41'0 0.0
2015-Jun-24 12:23N 35°56' E 140°41'0 0.0
2015-Jun-24 11:32N 35°56' E 140°41'0 0.0
2015-Jun-23 21:23N 35°56' E 140°41'0 0.0
2015-Jun-23 20:23N 35°56' E 140°41'0 0.0
2015-Jun-22 16:11N 35°56' E 140°41'0 0.0
2015-Jun-22 15:23N 35°56' E 140°41'0 0.0
2015-Jun-22 14:23N 35°56' E 140°41'0 0.0
2015-Jun-22 13:29N 35°56' E 140°41'0 0.0
2015-Jun-22 12:29N 35°56' E 140°41'0 0.0
2015-Jun-22 11:23N 35°56' E 140°41'0 0.0
2015-Jun-22 10:32N 35°56' E 140°41'1 0.7
2015-Jun-22 08:33N 35°57' E 140°42'  
2015-Jun-19 22:33N 36°05' E 140°46'11 8.6
2015-Jun-19 21:19N 35°56' E 140°41'0 0.0
2015-Jun-19 20:31N 35°56' E 140°41'0 0.0
2015-Jun-19 19:31N 35°56' E 140°41'0 0.0
2015-Jun-19 07:28N 35°55' E 140°41'6 3.1
2015-Jun-19 05:20N 36°02' E 140°43'0 0.0
2015-Jun-19 03:20N 36°02' E 140°43'0 0.0
2015-Jun-19 02:20N 36°02' E 140°43'0 0.0
2015-Jun-19 00:20N 36°02' E 140°43'0 0.0
2015-Jun-18 22:26N 36°02' E 140°43'0 0.0
2015-Jun-18 20:23N 36°02' E 140°43'0 0.0
2015-Jun-18 19:32N 36°02' E 140°43'0 0.0
2015-Jun-18 18:32N 36°02' E 140°43'0 0.0
2015-Jun-18 17:32N 36°02' E 140°43'0 0.0
2015-Jun-18 16:29N 36°02' E 140°43'0 0.0
2015-Jun-18 15:32N 36°02' E 140°43'0 0.0
2015-Jun-18 14:29N 36°02' E 140°43'0 0.0
2015-Jun-18 13:32N 36°02' E 140°43'0 0.0
2015-Jun-18 11:32N 36°02' E 140°43'0 0.0
2015-Jun-18 05:08N 36°02' E 140°43'0 0.0
2015-Jun-18 04:08N 36°02' E 140°43'0 0.0
2015-Jun-18 03:32N 36°02' E 140°43'0 0.0
2015-Jun-18 02:26N 36°02' E 140°43'0 0.0
2015-Jun-17 23:14N 36°02' E 140°43'0 0.1
2015-Jun-17 22:20N 36°02' E 140°43'0 0.0
2015-Jun-17 21:23N 36°02' E 140°43'0 0.0
2015-Jun-17 19:26N 36°02' E 140°43'0 0.0
2015-Jun-17 18:26N 36°02' E 140°43'0 0.0
2015-Jun-17 15:20N 36°02' E 140°43'0 0.0
2015-Jun-17 06:23N 36°02' E 140°43'1 1.5
2015-Jun-17 05:33N 36°02' E 140°45'  

Dump ship's entire track history